Time;durP1;ratioP1;P1;durP2;ratioP2;P2;SDS_P1;SDS_P2;PMS_P1;PMS_P2;Temp;Humidity;BMP_temperature;BMP_pressure;BME280_temperature;BME280_humidity;BME280_pressure;Samples;Min_cycle;Max_cycle;Signal;HPM_P1;HPM_P2
2022/12/20 00:00:00;;;;;;;7.50;7.30;;;1.00;99.90;;;;;;5083476;28;20237;-83
2022/12/20 00:02:30;;;;;;;7.90;7.70;;;1.00;99.90;;;;;;5092520;28;20230;-83
2022/12/20 00:04:59;;;;;;;7.90;7.70;;;1.00;99.90;;;;;;5094533;28;20219;-84
2022/12/20 00:07:28;;;;;;;7.83;7.63;;;1.00;99.90;;;;;;5080534;28;20198;-83
2022/12/20 00:10:01;;;;;;;7.90;7.70;;;1.10;99.90;;;;;;5093805;22;20242;-84
2022/12/20 00:12:29;;;;;;;7.90;7.70;;;1.10;99.90;;;;;;5054102;28;20245;-84
2022/12/20 00:14:59;;;;;;;8.00;7.80;;;1.00;99.90;;;;;;5063707;28;20223;-84
2022/12/20 00:17:27;;;;;;;7.90;7.70;;;1.00;99.90;;;;;;5054432;28;20223;-84
2022/12/20 00:19:56;;;;;;;7.87;7.67;;;1.00;99.90;;;;;;5055785;28;20231;-83
2022/12/20 00:22:25;;;;;;;7.77;7.57;;;1.10;99.90;;;;;;5064146;28;20305;-83
2022/12/20 00:24:54;;;;;;;7.80;7.60;;;1.10;99.90;;;;;;5064977;28;20321;-83
2022/12/20 00:27:27;;;;;;;7.93;7.73;;;1.10;99.90;;;;;;5064327;28;20226;-83
2022/12/20 00:30:06;;;;;;;7.90;7.70;;;1.10;99.90;;;;;;5062869;28;20239;-84
2022/12/20 00:32:33;;;;;;;7.80;7.60;;;1.10;99.90;;;;;;5063653;28;20269;-83
2022/12/20 00:35:01;;;;;;;7.70;7.50;;;1.10;99.90;;;;;;5063685;28;20313;-83
2022/12/20 00:37:30;;;;;;;7.87;7.67;;;1.10;99.90;;;;;;5063266;28;20245;-82
2022/12/20 00:39:59;;;;;;;8.10;7.90;;;1.10;99.90;;;;;;5064412;28;20310;-83
2022/12/20 00:42:39;;;;;;;8.20;8.00;;;1.10;99.90;;;;;;5064431;28;20223;-83
2022/12/20 00:45:08;;;;;;;8.00;7.80;;;1.20;99.90;;;;;;5064937;28;20235;-82
2022/12/20 00:47:49;;;;;;;7.80;7.60;;;1.20;99.90;;;;;;5063952;28;20241;-82
2022/12/20 00:50:17;;;;;;;7.70;7.50;;;1.20;99.90;;;;;;5063786;28;20320;-83
2022/12/20 00:52:44;;;;;;;7.70;7.50;;;1.20;99.90;;;;;;5056835;28;20294;-84
2022/12/20 00:55:14;;;;;;;7.80;7.60;;;1.20;99.90;;;;;;5034683;28;20296;-83
2022/12/20 00:57:46;;;;;;;8.00;7.80;;;1.20;99.90;;;;;;5047551;28;20226;-83
2022/12/20 01:00:15;;;;;;;7.90;7.70;;;1.20;99.90;;;;;;5065679;28;20235;-83
2022/12/20 01:02:42;;;;;;;7.80;7.60;;;1.20;99.90;;;;;;5065782;28;20234;-83
2022/12/20 01:05:12;;;;;;;8.00;7.80;;;1.20;99.90;;;;;;5065573;28;20222;-84
2022/12/20 01:07:41;;;;;;;7.97;7.77;;;1.20;99.90;;;;;;5069868;28;20219;-83
2022/12/20 01:10:11;;;;;;;8.00;7.80;;;1.20;99.90;;;;;;5075343;28;20251;-83
2022/12/20 01:12:40;;;;;;;8.03;7.83;;;1.10;99.90;;;;;;5068313;28;20231;-84
2022/12/20 01:15:20;;;;;;;8.17;7.97;;;1.10;99.90;;;;;;5067735;28;20245;-84
2022/12/20 01:17:48;;;;;;;8.10;7.90;;;1.20;99.90;;;;;;5066684;28;20282;-84
2022/12/20 01:20:17;;;;;;;7.90;7.70;;;1.20;99.90;;;;;;5042136;28;20231;-84
2022/12/20 01:22:47;;;;;;;7.50;7.30;;;1.20;99.90;;;;;;5064661;28;20226;-84
2022/12/20 01:25:16;;;;;;;7.60;7.40;;;1.20;99.90;;;;;;5046215;28;20234;-84
2022/12/20 01:27:45;;;;;;;7.43;7.23;;;1.10;99.90;;;;;;5045531;28;20278;-84
2022/12/20 01:30:25;;;;;;;7.40;7.20;;;1.10;99.90;;;;;;5045931;28;20246;-83
2022/12/20 01:32:53;;;;;;;7.30;7.10;;;1.20;99.90;;;;;;5045256;28;20307;-83
2022/12/20 01:35:22;;;;;;;7.70;7.50;;;1.20;99.90;;;;;;5044650;28;20224;-83
2022/12/20 01:37:53;;;;;;;7.83;7.63;;;1.20;99.90;;;;;;5045675;28;20244;-83
2022/12/20 01:40:23;;;;;;;8.03;7.83;;;1.20;99.90;;;;;;5044571;28;20235;-83
2022/12/20 01:42:52;;;;;;;7.80;7.60;;;1.20;99.90;;;;;;5044903;28;20266;-83
2022/12/20 01:45:31;;;;;;;7.90;7.70;;;1.20;99.90;;;;;;5045682;28;20243;-83
2022/12/20 01:48:03;;;;;;;7.90;7.70;;;1.20;99.90;;;;;;5048378;28;20290;-83
2022/12/20 01:50:32;;;;;;;8.00;7.80;;;1.20;99.90;;;;;;5048071;28;20235;-83
2022/12/20 01:53:02;;;;;;;7.77;7.57;;;1.20;99.90;;;;;;5048140;28;20321;-83
2022/12/20 01:55:31;;;;;;;7.70;7.50;;;1.10;99.90;;;;;;5048667;28;20235;-83
2022/12/20 01:58:08;;;;;;;7.90;7.70;;;1.10;99.90;;;;;;5068063;28;20259;-83
2022/12/20 02:00:39;;;;;;;7.90;7.70;;;1.10;99.90;;;;;;5068422;28;20325;-83
2022/12/20 02:03:16;;;;;;;7.83;7.63;;;1.10;99.90;;;;;;5068914;28;20230;-83
2022/12/20 02:05:54;;;;;;;8.20;8.00;;;1.10;99.90;;;;;;5060768;28;20274;-83
2022/12/20 02:08:22;;;;;;;7.70;7.50;;;1.10;99.90;;;;;;5029656;28;20227;-84
2022/12/20 02:11:09;;;;;;;8.00;7.80;;;1.00;99.90;;;;;;5029138;28;20290;-82
2022/12/20 02:13:47;;;;;;;7.77;7.57;;;1.00;99.90;;;;;;5030395;28;20232;-83
2022/12/20 02:16:26;;;;;;;7.70;7.50;;;1.00;99.90;;;;;;5029813;28;20326;-84
2022/12/20 02:19:06;;;;;;;7.80;7.60;;;1.00;99.90;;;;;;5030671;28;20200;-84
2022/12/20 02:21:43;;;;;;;7.70;7.50;;;1.00;99.90;;;;;;5031147;28;20263;-84
2022/12/20 02:24:55;;;;;;;7.90;7.70;;;1.00;99.90;;;;;;5030635;28;20290;-83
2022/12/20 02:27:54;;;;;;;8.17;7.97;;;1.00;99.90;;;;;;5027327;28;20227;-84
2022/12/20 02:30:31;;;;;;;7.83;7.63;;;1.00;99.90;;;;;;5028004;28;20285;-85
2022/12/20 02:33:02;;;;;;;8.00;7.80;;;1.00;99.90;;;;;;5027595;28;20343;-83
2022/12/20 02:35:38;;;;;;;7.77;7.57;;;0.90;99.90;;;;;;5028343;28;20311;-83
2022/12/20 02:38:27;;;;;;;7.93;7.73;;;0.90;99.90;;;;;;5030388;28;20231;-83
2022/12/20 02:41:04;;;;;;;7.77;7.57;;;0.90;99.90;;;;;;5036231;28;20276;-83
2022/12/20 02:46:28;;;;;;;7.60;7.40;;;1.00;99.90;;;;;;5031682;28;20219;-84
2022/12/20 02:49:10;;;;;;;7.60;7.40;;;1.00;99.90;;;;;;5029320;28;20591;-83
2022/12/20 02:51:38;;;;;;;7.37;7.17;;;1.00;99.90;;;;;;5028808;28;21033;-83
2022/12/20 02:54:06;;;;;;;7.80;7.60;;;1.10;99.90;;;;;;5027746;28;20232;-83
2022/12/20 02:56:43;;;;;;;7.73;7.53;;;1.10;99.90;;;;;;5028167;28;20263;-83
2022/12/20 02:59:15;;;;;;;8.00;7.80;;;1.10;99.90;;;;;;5033796;28;20222;-83
2022/12/20 03:01:51;;;;;;;7.83;7.63;;;1.10;99.90;;;;;;5047361;28;20224;-83
2022/12/20 03:04:21;;;;;;;8.00;7.80;;;1.00;99.90;;;;;;5048220;28;20235;-83
2022/12/20 03:07:01;;;;;;;8.03;7.83;;;1.00;99.90;;;;;;5047943;28;20270;-83
2022/12/20 03:09:30;;;;;;;8.50;8.30;;;1.00;99.90;;;;;;5047765;28;20235;-83
2022/12/20 03:11:58;;;;;;;8.17;7.97;;;1.00;99.90;;;;;;5047138;28;20223;-83
2022/12/20 03:14:27;;;;;;;8.23;8.03;;;1.00;99.90;;;;;;5047745;28;20259;-83
2022/12/20 03:17:05;;;;;;;8.00;7.80;;;1.00;99.90;;;;;;5049009;28;20254;-84
2022/12/20 03:19:34;;;;;;;8.00;7.80;;;1.00;99.90;;;;;;5054241;28;20227;-82
2022/12/20 03:22:04;;;;;;;7.80;7.60;;;1.00;99.90;;;;;;5055951;28;20220;-83
2022/12/20 03:24:34;;;;;;;7.80;7.60;;;1.00;99.90;;;;;;5050383;28;20242;-83
2022/12/20 03:27:03;;;;;;;7.70;7.50;;;1.00;99.90;;;;;;5049107;28;20244;-83
2022/12/20 03:29:34;;;;;;;7.83;7.63;;;1.00;99.90;;;;;;5048033;28;20239;-83
2022/12/20 03:32:04;;;;;;;7.57;7.37;;;1.10;99.90;;;;;;5046680;28;20326;-83
2022/12/20 03:34:32;;;;;;;7.70;7.50;;;1.10;99.90;;;;;;5046653;28;20290;-82
2022/12/20 03:37:00;;;;;;;7.80;7.60;;;1.20;99.90;;;;;;5052213;28;20298;-83
2022/12/20 03:39:32;;;;;;;7.70;7.50;;;1.20;99.90;;;;;;5066454;28;20285;-83
2022/12/20 03:42:02;;;;;;;7.77;7.57;;;1.30;99.90;;;;;;5066346;28;20223;-83
2022/12/20 03:44:31;;;;;;;7.83;7.63;;;1.30;99.90;;;;;;5066681;28;20273;-83
2022/12/20 03:47:00;;;;;;;7.47;7.27;;;1.30;99.90;;;;;;5066939;28;20250;-83
2022/12/20 03:49:32;;;;;;;7.40;7.20;;;1.30;99.90;;;;;;5066971;28;20269;-83
2022/12/20 03:51:59;;;;;;;7.30;7.10;;;1.40;99.90;;;;;;5067363;28;20223;-83
2022/12/20 03:54:28;;;;;;;7.63;7.43;;;1.40;99.90;;;;;;5068836;28;20241;-83
2022/12/20 03:56:59;;;;;;;7.50;7.30;;;1.40;99.90;;;;;;5065947;28;20243;-83
2022/12/20 03:59:27;;;;;;;7.70;7.50;;;1.50;99.90;;;;;;5064916;28;20258;-83
2022/12/20 04:01:56;;;;;;;7.70;7.50;;;1.40;99.90;;;;;;5065165;28;20259;-83
2022/12/20 04:04:27;;;;;;;7.47;7.27;;;1.40;99.90;;;;;;5064961;28;20257;-83
2022/12/20 04:06:58;;;;;;;7.73;7.53;;;1.40;99.90;;;;;;5064595;28;20231;-83
2022/12/20 04:09:26;;;;;;;7.67;7.47;;;1.40;99.90;;;;;;5063944;28;20313;-83
2022/12/20 04:11:55;;;;;;;7.73;7.53;;;1.40;99.90;;;;;;5063916;28;20282;-83
2022/12/20 04:14:24;;;;;;;7.70;7.50;;;1.40;99.90;;;;;;5064694;28;20281;-83
2022/12/20 04:16:54;;;;;;;7.70;7.50;;;1.30;99.90;;;;;;5051516;28;20427;-83
2022/12/20 04:19:23;;;;;;;7.33;7.13;;;1.30;99.90;;;;;;5052117;28;20299;-83
2022/12/20 04:21:54;;;;;;;7.50;7.30;;;1.30;99.90;;;;;;5064431;28;20247;-83
2022/12/20 04:24:25;;;;;;;7.50;7.30;;;1.20;99.90;;;;;;5066047;28;20273;-82
2022/12/20 04:26:52;;;;;;;7.30;7.10;;;1.20;99.90;;;;;;5066381;28;20223;-83
2022/12/20 04:29:21;;;;;;;7.43;7.23;;;1.10;99.90;;;;;;5065051;28;20296;-84
2022/12/20 04:31:50;;;;;;;7.30;7.10;;;1.10;99.90;;;;;;5064146;28;20226;-83
2022/12/20 04:34:21;;;;;;;7.00;6.80;;;1.00;99.90;;;;;;5064348;28;20304;-83
2022/12/20 04:36:49;;;;;;;6.93;6.73;;;1.10;99.90;;;;;;5064506;28;20277;-83
2022/12/20 04:39:18;;;;;;;6.80;6.60;;;1.10;99.90;;;;;;5063651;28;20325;-83
2022/12/20 04:41:58;;;;;;;6.77;6.57;;;1.10;99.90;;;;;;5063942;28;20231;-83
2022/12/20 04:44:26;;;;;;;6.60;6.40;;;1.00;99.90;;;;;;5067209;28;20258;-83
2022/12/20 04:46:55;;;;;;;7.10;6.90;;;1.00;99.90;;;;;;5065842;28;20230;-83
2022/12/20 04:49:26;;;;;;;6.97;6.77;;;1.00;99.90;;;;;;5064573;28;20227;-83
2022/12/20 04:53:46;;;;;;;7.47;7.27;;;1.00;99.90;;;;;;5065292;28;20297;-83
2022/12/20 04:54:41;;;;;;;7.10;6.90;;;1.00;99.90;;;;;;5063684;28;20226;-83
2022/12/20 04:57:21;;;;;;;6.97;6.77;;;1.10;99.90;;;;;;5064671;28;20231;-83
2022/12/20 04:59:49;;;;;;;7.00;6.80;;;1.10;99.90;;;;;;5064116;28;20285;-83
2022/12/20 05:02:18;;;;;;;7.03;6.83;;;1.00;99.90;;;;;;5064571;28;20231;-83
2022/12/20 05:04:48;;;;;;;7.13;6.93;;;1.00;99.90;;;;;;5064986;28;20234;-82
2022/12/20 05:07:18;;;;;;;7.40;7.20;;;1.00;99.90;;;;;;5064265;28;20261;-83
2022/12/20 05:09:47;;;;;;;7.50;7.30;;;1.10;99.90;;;;;;5062825;28;20258;-83
2022/12/20 05:12:26;;;;;;;7.47;7.27;;;1.10;99.90;;;;;;5063393;28;20218;-83
2022/12/20 05:14:54;;;;;;;7.47;7.27;;;1.10;99.90;;;;;;5063329;28;20226;-83
2022/12/20 05:17:23;;;;;;;7.70;7.50;;;1.10;99.90;;;;;;5063252;28;20300;-83
2022/12/20 05:19:53;;;;;;;7.40;7.20;;;1.10;99.90;;;;;;5063034;28;20253;-82
2022/12/20 05:27:57;;;;;;;7.40;7.20;;;1.00;99.90;;;;;;5072928;28;20207;-83
2022/12/20 05:30:26;;;;;;;7.50;7.30;;;1.00;99.90;;;;;;5077906;28;20242;-83
2022/12/20 05:32:56;;;;;;;7.40;7.20;;;1.10;99.90;;;;;;5071262;28;20250;-82
2022/12/20 05:35:25;;;;;;;7.40;7.20;;;1.00;99.90;;;;;;5063332;28;21107;-83
2022/12/20 05:37:55;;;;;;;7.50;7.30;;;1.00;99.90;;;;;;5061747;28;20262;-83
2022/12/20 05:40:25;;;;;;;7.50;7.30;;;1.00;99.90;;;;;;5067512;28;20247;-82
2022/12/20 05:43:05;;;;;;;7.50;7.30;;;1.00;99.90;;;;;;5067808;28;20215;-83
2022/12/20 05:45:34;;;;;;;7.30;7.10;;;1.10;99.90;;;;;;5068051;28;20237;-82
2022/12/20 05:48:03;;;;;;;7.30;7.10;;;1.00;99.90;;;;;;5068159;28;20231;-83
2022/12/20 05:50:33;;;;;;;7.50;7.30;;;1.10;99.90;;;;;;5068556;28;20241;-83
2022/12/20 05:53:01;;;;;;;7.20;7.00;;;1.10;99.90;;;;;;5069359;28;20329;-83
2022/12/20 05:55:31;;;;;;;7.40;7.20;;;1.10;99.90;;;;;;5067954;28;20230;-83
2022/12/20 05:58:03;;;;;;;7.50;7.30;;;1.20;99.90;;;;;;5068740;28;20223;-83
2022/12/20 06:00:31;;;;;;;7.50;7.30;;;1.20;99.90;;;;;;5073818;28;20257;-83
2022/12/20 06:03:00;;;;;;;7.37;7.17;;;1.20;99.90;;;;;;5072109;28;20226;-82
2022/12/20 06:05:29;;;;;;;7.23;7.03;;;1.30;99.90;;;;;;5071393;28;20230;-83
2022/12/20 06:07:59;;;;;;;7.53;7.33;;;1.30;99.90;;;;;;5070225;28;20294;-82
2022/12/20 06:10:28;;;;;;;7.60;7.40;;;1.30;99.90;;;;;;5068750;28;20243;-82
2022/12/20 06:12:57;;;;;;;7.30;7.10;;;1.30;99.90;;;;;;5096627;22;20218;-82
2022/12/20 06:15:29;;;;;;;7.33;7.13;;;1.30;99.90;;;;;;5094465;28;20258;-82
2022/12/20 06:17:57;;;;;;;7.60;7.40;;;1.30;99.90;;;;;;5076829;28;20254;-82
2022/12/20 06:20:26;;;;;;;7.50;7.30;;;1.30;99.90;;;;;;5086039;28;20234;-83
2022/12/20 06:22:55;;;;;;;7.50;7.30;;;1.30;99.90;;;;;;5085831;28;20237;-83
2022/12/20 06:25:24;;;;;;;7.00;6.80;;;1.30;99.90;;;;;;5085421;28;20286;-83
2022/12/20 06:27:54;;;;;;;7.40;7.20;;;1.30;99.90;;;;;;5085811;28;20253;-83
2022/12/20 06:30:23;;;;;;;7.33;7.13;;;1.30;99.90;;;;;;5085377;28;20317;-82
2022/12/20 06:33:00;;;;;;;7.40;7.20;;;1.40;99.90;;;;;;5084441;28;20358;-83
2022/12/20 06:35:31;;;;;;;7.40;7.20;;;1.30;99.90;;;;;;5086385;28;20241;-83
2022/12/20 06:38:00;;;;;;;7.27;7.07;;;1.40;99.90;;;;;;5086209;28;20257;-82
2022/12/20 06:40:30;;;;;;;7.10;6.90;;;1.40;99.90;;;;;;5084864;28;20222;-83
2022/12/20 06:43:00;;;;;;;7.47;7.27;;;1.40;99.90;;;;;;5086178;28;20225;-83
2022/12/20 06:45:29;;;;;;;7.50;7.30;;;1.40;99.90;;;;;;5086063;28;20269;-83
2022/12/20 06:48:07;;;;;;;7.60;7.40;;;1.50;99.90;;;;;;5085908;28;20298;-83
2022/12/20 06:51:06;;;;;;;7.20;7.00;;;1.50;99.90;;;;;;5085768;28;20996;-83
2022/12/20 06:53:34;;;;;;;7.30;7.10;;;1.50;99.90;;;;;;5087677;28;20258;-84
2022/12/20 06:56:02;;;;;;;7.23;7.03;;;1.50;99.90;;;;;;5084983;28;20233;-83
2022/12/20 06:58:31;;;;;;;7.30;7.10;;;1.50;99.90;;;;;;5084728;28;20230;-83
2022/12/20 07:01:00;;;;;;;7.87;7.67;;;1.60;99.90;;;;;;5086623;28;20222;-83
2022/12/20 07:03:35;;;;;;;7.80;7.60;;;1.60;99.90;;;;;;5084597;28;20238;-83
2022/12/20 07:06:07;;;;;;;8.30;8.10;;;1.60;99.90;;;;;;5085430;28;20281;-83
2022/12/20 07:08:37;;;;;;;8.40;8.20;;;1.60;99.90;;;;;;5085941;28;20253;-82
2022/12/20 07:11:07;;;;;;;8.60;8.40;;;1.60;99.90;;;;;;5086285;28;20246;-83
2022/12/20 07:13:38;;;;;;;8.60;8.40;;;1.60;99.90;;;;;;5085886;28;20237;-83
2022/12/20 07:16:07;;;;;;;8.40;8.20;;;1.60;99.90;;;;;;5086072;28;20238;-83
2022/12/20 07:18:38;;;;;;;8.53;8.33;;;1.60;99.90;;;;;;5085149;28;20258;-84
2022/12/20 07:21:16;;;;;;;8.40;8.20;;;1.60;99.90;;;;;;5085853;28;20282;-84
2022/12/20 07:23:43;;;;;;;8.40;8.20;;;1.50;99.90;;;;;;5083573;28;20226;-82
2022/12/20 07:26:12;;;;;;;8.33;8.13;;;1.50;99.90;;;;;;5075911;28;20333;-82
2022/12/20 07:28:43;;;;;;;8.03;7.83;;;1.50;99.90;;;;;;5076863;28;20253;-82
2022/12/20 07:31:11;;;;;;;8.17;7.97;;;1.50;99.90;;;;;;5070506;28;20226;-82
2022/12/20 07:33:51;;;;;;;7.93;7.73;;;1.50;99.90;;;;;;5065577;28;20287;-82
2022/12/20 07:36:19;;;;;;;8.20;8.00;;;1.50;99.90;;;;;;5065531;28;20261;-82
2022/12/20 07:38:49;;;;;;;7.70;7.50;;;1.60;99.90;;;;;;5064774;28;20230;-83
2022/12/20 07:41:30;;;;;;;7.90;7.70;;;1.60;99.90;;;;;;5066236;28;20223;-83
2022/12/20 07:43:59;;;;;;;7.87;7.67;;;1.60;99.90;;;;;;5072852;28;20227;-83
2022/12/20 07:46:27;;;;;;;8.00;7.80;;;1.60;99.90;;;;;;5074110;28;20234;-83
2022/12/20 07:49:08;;;;;;;8.20;8.00;;;1.70;99.90;;;;;;5073551;28;20230;-83
2022/12/20 07:51:40;;;;;;;8.43;8.23;;;1.70;99.90;;;;;;5068335;28;20225;-83
2022/12/20 07:54:13;;;;;;;8.85;8.65;;;1.70;99.90;;;;;;5066867;28;20410;-84
2022/12/20 07:56:44;;;;;;;8.53;8.33;;;1.60;99.90;;;;;;5067830;28;20286;-83
2022/12/20 07:59:15;;;;;;;9.00;8.80;;;1.70;99.90;;;;;;5067970;28;20242;-82
2022/12/20 08:01:44;;;;;;;8.70;8.50;;;1.70;99.90;;;;;;5068335;28;20230;-83
2022/12/20 08:04:21;;;;;;;8.70;8.50;;;1.70;99.90;;;;;;5068320;28;20230;-82
2022/12/20 08:06:50;;;;;;;8.50;8.30;;;1.80;99.90;;;;;;5068364;28;20225;-83
2022/12/20 08:09:19;;;;;;;8.37;8.17;;;1.80;99.90;;;;;;5067966;28;20235;-83
2022/12/20 08:11:49;;;;;;;8.17;7.97;;;1.80;99.90;;;;;;5078288;28;20685;-83
2022/12/20 08:14:19;;;;;;;8.53;8.33;;;1.80;99.90;;;;;;5080465;28;20245;-81
2022/12/20 08:16:47;;;;;;;9.13;8.83;;;1.70;99.90;;;;;;5078988;28;20211;-83
2022/12/20 08:19:27;;;;;;;7.77;7.57;;;1.90;99.90;;;;;;5064757;28;20254;-82
2022/12/20 08:21:55;;;;;;;8.57;8.37;;;2.40;99.90;;;;;;5061263;28;20230;-83
2022/12/20 08:24:24;;;;;;;8.80;8.60;;;2.30;99.90;;;;;;5060723;28;20317;-82
2022/12/20 08:26:55;;;;;;;8.90;8.70;;;2.10;99.90;;;;;;5061315;28;20326;-83
2022/12/20 08:29:23;;;;;;;9.00;8.80;;;2.00;99.90;;;;;;5061824;28;20223;-81
2022/12/20 08:31:53;;;;;;;9.20;8.90;;;2.00;99.90;;;;;;5061427;28;20266;-82
2022/12/20 08:34:25;;;;;;;8.90;8.70;;;2.00;99.90;;;;;;5060306;28;20223;-82
2022/12/20 08:36:52;;;;;;;9.03;8.80;;;1.90;99.90;;;;;;5061114;28;20310;-82
2022/12/20 08:39:21;;;;;;;8.60;8.40;;;2.00;99.90;;;;;;5061660;28;20293;-83
2022/12/20 08:41:50;;;;;;;8.77;8.57;;;2.00;99.90;;;;;;5061691;28;20226;-82
2022/12/20 08:44:22;;;;;;;9.13;8.83;;;2.00;99.90;;;;;;5062150;28;20226;-82
2022/12/20 08:46:59;;;;;;;8.90;8.70;;;2.00;99.90;;;;;;5062116;28;20230;-82
2022/12/20 08:49:36;;;;;;;8.87;8.67;;;2.00;99.90;;;;;;5062242;28;20218;-82
2022/12/20 08:52:06;;;;;;;8.97;8.77;;;2.00;99.90;;;;;;5061702;28;20262;-82
2022/12/20 08:54:35;;;;;;;8.80;8.60;;;2.00;99.90;;;;;;5061256;28;20247;-82
2022/12/20 08:57:04;;;;;;;8.80;8.60;;;2.10;99.90;;;;;;5061973;28;20230;-82
2022/12/20 08:59:34;;;;;;;8.80;8.60;;;2.10;99.90;;;;;;5061598;28;20227;-82
2022/12/20 09:02:04;;;;;;;8.90;8.70;;;2.10;99.90;;;;;;5061268;28;20250;-83
2022/12/20 09:04:35;;;;;;;8.80;8.60;;;2.20;99.90;;;;;;5080604;28;20222;-83
2022/12/20 09:07:03;;;;;;;9.03;8.80;;;2.20;99.90;;;;;;5082079;28;20280;-83
2022/12/20 09:09:33;;;;;;;9.00;8.73;;;2.20;99.90;;;;;;5081550;28;20230;-83
2022/12/20 09:12:01;;;;;;;8.80;8.60;;;2.30;99.90;;;;;;5081516;28;20222;-83
2022/12/20 09:14:31;;;;;;;8.80;8.60;;;2.30;99.90;;;;;;5080712;28;20218;-82
2022/12/20 09:17:00;;;;;;;8.50;8.30;;;2.30;99.90;;;;;;5081063;28;20229;-83
2022/12/20 09:19:29;;;;;;;8.43;8.23;;;2.40;99.90;;;;;;5080945;28;20257;-83
2022/12/20 09:22:09;;;;;;;8.80;8.60;;;2.40;99.90;;;;;;5080807;28;20233;-82
2022/12/20 09:24:38;;;;;;;8.87;8.67;;;2.50;99.90;;;;;;5081087;28;20228;-84
2022/12/20 09:27:06;;;;;;;8.57;8.37;;;2.50;99.90;;;;;;5082728;28;20253;-83
2022/12/20 09:29:35;;;;;;;9.00;8.77;;;2.60;99.90;;;;;;5081433;28;20260;-83
2022/12/20 09:32:05;;;;;;;8.90;8.70;;;2.60;99.90;;;;;;5079415;28;20638;-83
2022/12/20 09:34:35;;;;;;;8.70;8.50;;;2.60;99.90;;;;;;5063137;28;20227;-84
2022/12/20 09:37:07;;;;;;;8.90;8.70;;;2.70;99.90;;;;;;5081984;28;20234;-84
2022/12/20 09:39:36;;;;;;;8.80;8.60;;;2.70;99.90;;;;;;5084561;28;20236;-85
2022/12/20 09:42:15;;;;;;;8.90;8.70;;;2.70;99.90;;;;;;5083852;28;20230;-85
2022/12/20 09:44:43;;;;;;;9.20;8.90;;;2.70;99.90;;;;;;5085691;28;20229;-84
2022/12/20 09:47:21;;;;;;;9.30;9.00;;;2.70;99.90;;;;;;5085166;28;20241;-84
2022/12/20 09:49:53;;;;;;;8.97;8.70;;;2.70;99.90;;;;;;5094370;28;20229;-84
2022/12/20 09:52:56;;;;;;;9.07;8.80;;;2.80;99.90;;;;;;5079645;28;20239;-84
2022/12/20 09:55:35;;;;;;;9.03;8.77;;;2.70;99.90;;;;;;5069026;28;20234;-83
2022/12/20 09:58:38;;;;;;;8.93;8.73;;;2.70;99.90;;;;;;5064928;28;20238;-83
2022/12/20 10:01:19;;;;;;;9.40;9.10;;;2.70;99.90;;;;;;5066271;28;20288;-82
2022/12/20 10:03:47;;;;;;;8.67;8.47;;;2.70;99.90;;;;;;5066637;28;20265;-82
2022/12/20 10:06:25;;;;;;;8.70;8.50;;;2.70;99.90;;;;;;5064962;28;20263;-82
2022/12/20 10:09:00;;;;;;;8.57;8.37;;;2.70;99.90;;;;;;5070042;28;20226;-81
2022/12/20 10:11:53;;;;;;;8.63;8.43;;;2.70;99.90;;;;;;5070197;28;20281;-82
2022/12/20 10:14:47;;;;;;;8.90;8.70;;;2.70;99.90;;;;;;5071218;28;20234;-82
2022/12/20 10:17:26;;;;;;;8.50;8.30;;;2.70;99.90;;;;;;5075032;28;20219;-82
2022/12/20 10:20:17;;;;;;;8.10;7.90;;;2.70;99.90;;;;;;5079517;28;20230;-81
2022/12/20 10:22:57;;;;;;;8.13;7.93;;;2.70;99.90;;;;;;5076384;28;20258;-83
2022/12/20 10:25:35;;;;;;;8.30;8.10;;;2.80;99.90;;;;;;5075560;28;20233;-83
2022/12/20 10:28:15;;;;;;;8.80;8.60;;;2.80;99.90;;;;;;5074868;28;20211;-83
2022/12/20 10:30:44;;;;;;;8.73;8.53;;;2.80;99.90;;;;;;5075272;28;20286;-82
2022/12/20 10:33:22;;;;;;;9.17;8.87;;;2.90;99.90;;;;;;5088237;28;20298;-84
2022/12/20 10:35:51;;;;;;;9.00;8.80;;;2.90;99.90;;;;;;5078972;28;20258;-82
2022/12/20 10:38:22;;;;;;;9.60;9.30;;;3.00;99.90;;;;;;5073581;28;20219;-84
2022/12/20 10:41:07;;;;;;;9.70;9.40;;;3.00;99.90;;;;;;5073193;28;20223;-85
2022/12/20 10:43:45;;;;;;;9.80;9.50;;;3.10;99.90;;;;;;5072898;28;20245;-81
2022/12/20 10:46:15;;;;;;;9.53;9.23;;;3.10;99.90;;;;;;5072867;28;20233;-82
2022/12/20 10:48:48;;;;;;;9.50;9.20;;;3.20;99.90;;;;;;5081390;28;20285;-83
2022/12/20 10:51:19;;;;;;;9.50;9.20;;;3.20;99.90;;;;;;5093953;28;20256;-82
2022/12/20 10:53:58;;;;;;;9.60;9.30;;;3.20;99.90;;;;;;5086134;28;20219;-83
2022/12/20 10:56:31;;;;;;;9.40;9.10;;;3.20;99.90;;;;;;5068508;28;20230;-83
2022/12/20 10:59:03;;;;;;;9.20;8.90;;;3.20;99.90;;;;;;5069759;28;20229;-82
2022/12/20 11:01:41;;;;;;;9.10;8.80;;;3.30;99.90;;;;;;5067316;28;20235;-82
2022/12/20 11:04:27;;;;;;;8.90;8.70;;;3.30;99.90;;;;;;5073299;28;20234;-84
2022/12/20 11:06:56;;;;;;;9.20;8.90;;;3.40;99.90;;;;;;5072387;28;20230;-83
2022/12/20 11:09:30;;;;;;;9.30;9.00;;;3.40;99.90;;;;;;5080660;28;20223;-83
2022/12/20 11:12:04;;;;;;;8.90;8.70;;;3.50;99.90;;;;;;5075657;28;20229;-82
2022/12/20 11:14:35;;;;;;;10.30;10.00;;;3.60;99.90;;;;;;5071409;28;20235;-84
2022/12/20 11:17:28;;;;;;;8.90;8.70;;;3.80;99.90;;;;;;5069324;28;20230;-81
2022/12/20 11:20:20;;;;;;;9.17;8.87;;;4.10;99.90;;;;;;5059500;28;20231;-80
2022/12/20 11:22:58;;;;;;;9.20;8.90;;;4.20;99.90;;;;;;5062910;28;20234;-83
2022/12/20 11:25:42;;;;;;;9.30;9.00;;;4.40;99.90;;;;;;5070384;28;20231;-82
2022/12/20 11:28:38;;;;;;;9.50;9.20;;;4.40;99.90;;;;;;5069348;28;20237;-82
2022/12/20 11:31:16;;;;;;;9.13;8.83;;;4.30;99.90;;;;;;5068284;28;20219;-81
2022/12/20 11:34:03;;;;;;;9.43;9.13;;;4.20;99.90;;;;;;5071786;28;20286;-83
2022/12/20 11:36:45;;;;;;;9.60;9.30;;;4.20;99.90;;;;;;5074055;28;20241;-82
2022/12/20 11:39:24;;;;;;;9.23;8.93;;;4.10;99.90;;;;;;5071645;28;20215;-82
2022/12/20 11:42:00;;;;;;;9.57;9.27;;;4.20;99.90;;;;;;5072359;28;20249;-82
2022/12/20 11:44:54;;;;;;;9.57;9.27;;;4.20;99.90;;;;;;5063205;28;20233;-81
2022/12/20 11:47:49;;;;;;;9.30;9.00;;;4.20;99.90;;;;;;5063832;28;20298;-82
2022/12/20 11:50:41;;;;;;;9.13;8.83;;;4.20;99.90;;;;;;5063200;28;20297;-81
2022/12/20 11:53:17;;;;;;;8.90;8.70;;;4.20;99.90;;;;;;5063775;28;20330;-85
2022/12/20 11:55:50;;;;;;;8.90;8.70;;;4.10;99.90;;;;;;5065065;28;20242;-81
2022/12/20 11:58:25;;;;;;;9.10;8.80;;;4.10;99.90;;;;;;5080588;28;20284;-84
2022/12/20 12:01:02;;;;;;;8.80;8.60;;;4.10;99.90;;;;;;5064886;28;20269;-87
2022/12/20 12:03:39;;;;;;;8.70;8.50;;;4.10;99.90;;;;;;5072650;28;20223;-82
2022/12/20 12:06:12;;;;;;;8.50;8.30;;;4.10;99.90;;;;;;5079024;28;20230;-81
2022/12/20 12:08:48;;;;;;;8.50;8.30;;;4.10;99.90;;;;;;5095480;28;20252;-81
2022/12/20 12:11:23;;;;;;;8.50;8.30;;;4.10;99.90;;;;;;5096892;28;20238;-80
2022/12/20 12:13:56;;;;;;;8.33;8.13;;;4.10;99.90;;;;;;5109396;22;20238;-87
2022/12/20 12:16:34;;;;;;;8.60;8.40;;;4.20;99.90;;;;;;5064276;28;20999;-85
2022/12/20 12:19:11;;;;;;;8.57;8.37;;;4.20;99.90;;;;;;5073823;28;20228;-86
2022/12/20 12:21:49;;;;;;;9.13;8.83;;;4.30;99.90;;;;;;5069990;28;20222;-85
2022/12/20 12:24:38;;;;;;;8.90;8.70;;;4.30;99.90;;;;;;5077183;28;20249;-87
2022/12/20 12:27:25;;;;;;;8.50;8.30;;;4.30;99.90;;;;;;5063365;28;20215;-87
2022/12/20 12:33:43;;;;;;;8.60;8.40;;;4.30;99.90;;;;;;5053813;28;20207;-85
2022/12/20 12:36:46;;;;;;;8.53;8.33;;;4.30;99.90;;;;;;5058994;28;20223;-86
2022/12/20 12:39:58;;;;;;;8.70;8.50;;;4.50;99.90;;;;;;5059001;28;20246;-86
2022/12/20 12:43:28;;;;;;;8.67;8.47;;;4.50;99.90;;;;;;5056182;28;20238;-86
2022/12/20 12:46:05;;;;;;;9.10;8.80;;;4.50;99.90;;;;;;4966462;28;20226;-87
2022/12/20 12:49:24;;;;;;;9.40;9.10;;;4.50;99.90;;;;;;5022302;28;20238;-87
2022/12/20 12:52:35;;;;;;;9.30;9.00;;;4.50;99.90;;;;;;5023557;28;20769;-87
2022/12/20 12:55:52;;;;;;;9.10;8.80;;;4.50;99.90;;;;;;5023805;28;20236;-86
2022/12/20 13:02:33;;;;;;;9.23;8.93;;;4.50;99.90;;;;;;5024926;28;20654;-87
2022/12/20 13:06:03;;;;;;;8.90;8.70;;;4.50;99.90;;;;;;4944896;29;20301;-87
2022/12/20 13:13:04;;;;;;;8.80;8.60;;;4.60;99.90;;;;;;5023343;28;20243;-87
2022/12/20 13:20:06;;;;;;;8.50;8.30;;;4.70;99.90;;;;;;5007694;28;20270;-87
2022/12/20 13:23:38;;;;;;;8.73;8.53;;;4.70;99.90;;;;;;5024754;28;20290;-87
2022/12/20 13:26:49;;;;;;;8.80;8.60;;;4.60;99.90;;;;;;4964956;28;20264;-88
2022/12/20 13:29:41;;;;;;;8.67;8.47;;;4.60;99.90;;;;;;5049882;28;20232;-87
2022/12/20 13:33:12;;;;;;;8.67;8.47;;;4.50;99.90;;;;;;5042139;28;20228;-87
2022/12/20 13:46:32;;;;;;;8.20;8.00;;;4.50;99.90;;;;;;5111836;22;20238;-86
2022/12/20 13:49:10;;;;;;;8.20;8.00;;;4.60;99.90;;;;;;5068368;28;20238;-85
2022/12/20 13:54:26;;;;;;;8.20;8.00;;;4.60;99.90;;;;;;5068845;28;20215;-84
2022/12/20 13:57:19;;;;;;;8.60;8.40;;;4.60;99.90;;;;;;5069619;28;20262;-84
2022/12/20 13:59:54;;;;;;;8.60;8.40;;;4.60;99.90;;;;;;5068943;28;20314;-86
2022/12/20 14:02:29;;;;;;;8.60;8.40;;;4.60;99.90;;;;;;5068250;28;20296;-81
2022/12/20 14:05:11;;;;;;;8.40;8.20;;;4.60;99.90;;;;;;5070178;28;20269;-80
2022/12/20 14:07:39;;;;;;;8.20;8.00;;;4.60;99.90;;;;;;5069412;28;20238;-80
2022/12/20 14:10:24;;;;;;;8.20;8.00;;;4.60;99.90;;;;;;5068093;28;20235;-79
2022/12/20 14:13:20;;;;;;;8.13;7.93;;;4.50;99.90;;;;;;5068032;28;20230;-79
2022/12/20 14:15:49;;;;;;;8.13;7.93;;;4.50;99.90;;;;;;5069481;28;20222;-80